Time;durP1;ratioP1;P1;durP2;ratioP2;P2;SDS_P1;SDS_P2;PMS_P1;PMS_P2;Temp;Humidity;BMP_temperature;BMP_pressure;BME280_temperature;BME280_humidity;BME280_pressure;Samples;Min_cycle;Max_cycle;Signal;HPM_P1;HPM_P2
2021/05/30 00:00:36;;;;;;;5.17;4.20;;;15.90;93.10;;;;;;5029767;28;20469;-73
2021/05/30 00:03:02;;;;;;;7.77;3.67;;;15.80;93.20;;;;;;5030327;28;20301;-73
2021/05/30 00:05:28;;;;;;;3.47;2.97;;;15.70;93.60;;;;;;5045753;28;20228;-73
2021/05/30 00:07:55;;;;;;;4.57;3.80;;;15.60;93.30;;;;;;5062588;28;20449;-73
2021/05/30 00:10:21;;;;;;;4.97;3.60;;;15.60;93.50;;;;;;5019439;28;20481;-73
2021/05/30 00:12:47;;;;;;;3.90;3.30;;;15.60;93.50;;;;;;5045679;28;20471;-73
2021/05/30 00:15:13;;;;;;;5.00;3.93;;;15.50;93.50;;;;;;5062636;28;20221;-73
2021/05/30 00:21:45;;;;;;;4.73;4.23;;;15.50;93.60;;;;;;5024308;28;20451;-74
2021/05/30 00:24:11;;;;;;;4.83;4.13;;;15.40;93.70;;;;;;5038640;28;20444;-73
2021/05/30 00:26:37;;;;;;;6.83;4.20;;;15.40;94.00;;;;;;5029726;28;20439;-74
2021/05/30 00:29:04;;;;;;;5.97;4.10;;;15.40;93.60;;;;;;5029929;28;20220;-73
2021/05/30 00:31:30;;;;;;;4.63;3.90;;;15.40;93.70;;;;;;5051888;28;20982;-73
2021/05/30 00:33:55;;;;;;;5.10;3.43;;;15.40;93.70;;;;;;5062040;28;20486;-73
2021/05/30 00:36:21;;;;;;;5.67;3.53;;;15.40;93.70;;;;;;5046136;28;20212;-73
2021/05/30 00:38:47;;;;;;;4.57;3.87;;;15.40;93.80;;;;;;5028661;28;20224;-73
2021/05/30 00:41:12;;;;;;;5.30;3.70;;;15.30;93.70;;;;;;5078705;28;20232;-74
2021/05/30 00:43:44;;;;;;;5.13;3.47;;;15.30;94.00;;;;;;5045461;28;20224;-73
2021/05/30 00:46:10;;;;;;;5.57;3.90;;;15.30;94.00;;;;;;5062784;28;20220;-73
2021/05/30 00:48:36;;;;;;;5.60;3.20;;;15.30;94.00;;;;;;5062391;28;20864;-73
2021/05/30 00:51:02;;;;;;;4.53;3.80;;;15.30;93.90;;;;;;5029329;28;20810;-73
2021/05/30 00:53:28;;;;;;;4.57;4.00;;;15.30;94.10;;;;;;5029157;28;20487;-73
2021/05/30 00:55:54;;;;;;;6.20;3.20;;;15.30;94.00;;;;;;5028946;28;20943;-73
2021/05/30 00:58:20;;;;;;;4.77;3.73;;;15.30;94.00;;;;;;5062737;28;20216;-73
2021/05/30 01:00:45;;;;;;;4.00;3.70;;;15.20;94.10;;;;;;5040762;28;20252;-73
2021/05/30 01:03:11;;;;;;;5.40;3.97;;;15.20;94.00;;;;;;5027633;28;20294;-74
2021/05/30 01:05:36;;;;;;;4.27;3.43;;;15.20;94.00;;;;;;5061418;28;20315;-73
2021/05/30 01:08:02;;;;;;;4.40;3.50;;;15.20;94.10;;;;;;5078573;28;20267;-74
2021/05/30 01:10:33;;;;;;;5.03;4.00;;;15.20;94.00;;;;;;5044161;28;20644;-73
2021/05/30 01:13:01;;;;;;;5.30;4.30;;;15.10;94.00;;;;;;5043021;28;20235;-73
2021/05/30 01:15:29;;;;;;;5.27;4.30;;;15.00;94.30;;;;;;5027603;28;20537;-74
2021/05/30 01:17:55;;;;;;;5.03;3.70;;;15.00;94.30;;;;;;5032405;28;20971;-73
2021/05/30 01:20:22;;;;;;;5.40;3.70;;;15.00;94.30;;;;;;5049197;28;20467;-73
2021/05/30 01:22:48;;;;;;;7.30;4.10;;;15.00;94.20;;;;;;5082828;28;20825;-74
2021/05/30 01:25:19;;;;;;;5.83;3.93;;;15.00;94.10;;;;;;5066522;28;20463;-74
2021/05/30 01:27:48;;;;;;;5.70;3.50;;;15.00;94.20;;;;;;5049246;28;20463;-73
2021/05/30 01:30:15;;;;;;;6.23;4.20;;;14.90;94.20;;;;;;5048994;28;20447;-73
2021/05/30 01:32:41;;;;;;;5.43;3.97;;;15.00;94.30;;;;;;5048469;28;20574;-73
2021/05/30 01:35:08;;;;;;;4.27;3.53;;;15.00;94.30;;;;;;5049698;28;20466;-73
2021/05/30 01:37:34;;;;;;;6.13;4.27;;;14.90;94.20;;;;;;5049757;28;20459;-73
2021/05/30 01:40:00;;;;;;;6.17;4.93;;;14.90;94.30;;;;;;5049420;28;20482;-74
2021/05/30 01:42:27;;;;;;;8.63;4.03;;;14.90;94.40;;;;;;5032717;28;20656;-73
2021/05/30 01:44:53;;;;;;;7.23;4.57;;;14.80;94.40;;;;;;5016517;28;20216;-74
2021/05/30 01:47:18;;;;;;;5.57;3.30;;;14.80;94.40;;;;;;5033112;28;20935;-74
2021/05/30 01:49:44;;;;;;;7.27;4.83;;;14.70;94.50;;;;;;5065278;28;20274;-73
2021/05/30 01:52:10;;;;;;;6.10;4.00;;;14.70;94.40;;;;;;5080129;28;20224;-74
2021/05/30 01:54:41;;;;;;;4.30;3.60;;;14.70;94.50;;;;;;5048241;28;20236;-73
2021/05/30 01:57:09;;;;;;;5.67;3.90;;;14.80;94.40;;;;;;5032618;28;20451;-73
2021/05/30 01:59:35;;;;;;;6.17;4.37;;;14.80;94.30;;;;;;5032362;28;20512;-73
2021/05/30 02:02:02;;;;;;;5.30;3.90;;;14.80;94.40;;;;;;5047055;28;20505;-74
2021/05/30 02:04:37;;;;;;;3.77;3.27;;;14.80;94.30;;;;;;5049294;28;20827;-73
2021/05/30 02:07:03;;;;;;;5.37;3.80;;;14.70;94.40;;;;;;5012353;28;20505;-74
2021/05/30 02:09:30;;;;;;;4.00;3.63;;;14.70;94.30;;;;;;5013253;28;20478;-73
2021/05/30 02:11:57;;;;;;;6.70;4.23;;;14.70;94.40;;;;;;4995957;28;20476;-74
2021/05/30 02:14:22;;;;;;;5.73;4.40;;;14.70;94.50;;;;;;5011236;28;20472;-73
2021/05/30 02:16:49;;;;;;;5.90;4.57;;;14.70;94.40;;;;;;5013342;28;20514;-74
2021/05/30 02:19:15;;;;;;;5.20;3.43;;;14.60;94.50;;;;;;5079148;28;20307;-73
2021/05/30 02:21:49;;;;;;;6.13;4.40;;;14.60;94.50;;;;;;5070335;28;20526;-74
2021/05/30 02:24:16;;;;;;;5.30;4.00;;;14.50;94.40;;;;;;5068108;28;20253;-73
2021/05/30 02:26:42;;;;;;;5.23;3.73;;;14.50;94.40;;;;;;5029390;28;20509;-74
2021/05/30 02:29:09;;;;;;;5.07;4.23;;;14.50;94.50;;;;;;5045408;28;20546;-74
2021/05/30 02:31:35;;;;;;;6.07;4.10;;;14.50;94.40;;;;;;5080572;28;20546;-73
2021/05/30 02:34:02;;;;;;;5.30;3.60;;;14.40;94.50;;;;;;5059318;28;20538;-73
2021/05/30 02:36:28;;;;;;;5.40;4.03;;;14.40;94.40;;;;;;5048472;28;20672;-73
2021/05/30 02:38:55;;;;;;;7.30;4.63;;;14.40;94.50;;;;;;5047646;28;20553;-73
2021/05/30 02:41:22;;;;;;;4.43;4.00;;;14.40;94.50;;;;;;5065347;28;20455;-73
2021/05/30 02:43:48;;;;;;;4.77;4.20;;;14.40;94.50;;;;;;5048131;28;20542;-73
2021/05/30 02:46:15;;;;;;;5.63;4.10;;;14.40;94.50;;;;;;5064927;28;20551;-73
2021/05/30 02:48:41;;;;;;;3.87;3.57;;;14.30;94.60;;;;;;5030952;28;20810;-74
2021/05/30 02:51:07;;;;;;;4.27;3.40;;;14.30;94.50;;;;;;5064929;28;20538;-73
2021/05/30 02:53:34;;;;;;;7.60;4.00;;;14.20;94.40;;;;;;5048003;28;20651;-73
2021/05/30 02:56:01;;;;;;;7.90;3.70;;;14.20;94.70;;;;;;5032248;28;20621;-73
2021/05/30 02:58:29;;;;;;;5.37;3.60;;;14.20;94.50;;;;;;5080709;28;20459;-73
2021/05/30 03:00:55;;;;;;;4.17;3.43;;;14.20;94.50;;;;;;5030968;28;20459;-74
2021/05/30 03:03:22;;;;;;;4.37;3.73;;;14.20;94.40;;;;;;5031036;28;20448;-73
2021/05/30 03:05:48;;;;;;;6.33;4.10;;;14.20;94.50;;;;;;5047771;28;20483;-73
2021/05/30 03:08:14;;;;;;;6.77;4.67;;;14.20;94.50;;;;;;5032406;28;20455;-73
2021/05/30 03:10:41;;;;;;;6.40;3.77;;;14.20;94.50;;;;;;5047639;28;20513;-73
2021/05/30 03:13:07;;;;;;;5.67;3.93;;;14.20;94.60;;;;;;5047173;28;20233;-74
2021/05/30 03:15:32;;;;;;;4.63;4.07;;;14.10;94.50;;;;;;5063752;28;21055;-74
2021/05/30 03:17:58;;;;;;;7.00;3.93;;;14.10;94.50;;;;;;5064225;28;20447;-73
2021/05/30 03:20:24;;;;;;;7.63;3.77;;;14.10;94.50;;;;;;5043556;28;20221;-73
2021/05/30 03:22:49;;;;;;;4.93;3.93;;;14.10;94.50;;;;;;5063267;28;20224;-73
2021/05/30 03:25:15;;;;;;;4.50;3.10;;;14.00;94.50;;;;;;5030986;28;20311;-74
2021/05/30 03:27:56;;;;;;;5.00;3.60;;;14.00;94.50;;;;;;5063160;28;20224;-73
2021/05/30 03:30:22;;;;;;;6.50;3.80;;;14.00;94.60;;;;;;5030100;28;20211;-73
2021/05/30 03:32:48;;;;;;;4.60;3.77;;;14.00;94.50;;;;;;5031232;28;20840;-74
2021/05/30 03:35:14;;;;;;;4.93;3.90;;;13.90;94.50;;;;;;5066233;28;20459;-73
2021/05/30 03:37:40;;;;;;;4.20;3.47;;;13.90;94.50;;;;;;5033543;28;20219;-74
2021/05/30 03:41:00;;;;;;;5.43;3.70;;;13.90;94.60;;;;;;5032260;28;20215;-73
2021/05/30 03:42:53;;;;;;;5.63;3.80;;;13.90;94.60;;;;;;5042676;28;20500;-73
2021/05/30 03:45:23;;;;;;;5.23;4.10;;;13.80;94.60;;;;;;5077609;28;20497;-73
2021/05/30 03:47:50;;;;;;;5.57;3.60;;;13.80;94.60;;;;;;5013836;28;20451;-74
2021/05/30 03:50:16;;;;;;;4.93;3.67;;;13.80;94.70;;;;;;5030482;28;20459;-74
2021/05/30 03:52:41;;;;;;;3.93;3.47;;;13.80;94.70;;;;;;5028609;28;20459;-73
2021/05/30 03:55:08;;;;;;;3.77;3.17;;;13.80;94.60;;;;;;5038147;28;20458;-74
2021/05/30 03:57:38;;;;;;;4.77;4.00;;;13.70;94.60;;;;;;5047022;28;20220;-74
2021/05/30 04:00:09;;;;;;;5.77;4.03;;;13.80;94.80;;;;;;5031018;28;20459;-73
2021/05/30 04:02:35;;;;;;;6.30;3.73;;;13.70;94.70;;;;;;5013329;28;20447;-74
2021/05/30 04:05:01;;;;;;;8.40;4.17;;;13.70;94.80;;;;;;5007214;28;20459;-73
2021/05/30 04:07:27;;;;;;;4.63;3.50;;;13.70;94.80;;;;;;5013146;28;20221;-73
2021/05/30 04:09:53;;;;;;;6.10;3.70;;;13.70;94.80;;;;;;5040615;28;20721;-73
2021/05/30 04:12:19;;;;;;;5.13;3.53;;;13.60;94.80;;;;;;5023439;28;20524;-73
2021/05/30 04:14:45;;;;;;;5.43;4.10;;;13.60;94.90;;;;;;5004694;28;20952;-73
2021/05/30 04:17:10;;;;;;;6.60;4.00;;;13.60;95.00;;;;;;5020201;28;20243;-73
2021/05/30 04:19:36;;;;;;;4.70;4.17;;;13.60;95.00;;;;;;5016778;28;20218;-73
2021/05/30 04:22:02;;;;;;;4.30;3.27;;;13.60;95.10;;;;;;5003634;28;20282;-74
2021/05/30 04:24:28;;;;;;;4.93;3.57;;;13.60;95.00;;;;;;4998814;28;20226;-73
2021/05/30 04:26:54;;;;;;;5.00;3.47;;;13.60;95.10;;;;;;5019181;28;20461;-73
2021/05/30 04:29:20;;;;;;;4.83;3.43;;;13.60;95.20;;;;;;5036085;28;20217;-73
2021/05/30 04:31:46;;;;;;;5.73;4.03;;;13.60;95.20;;;;;;5021845;28;20539;-73
2021/05/30 04:34:11;;;;;;;4.17;3.50;;;13.60;95.10;;;;;;5021908;28;20229;-73
2021/05/30 04:36:37;;;;;;;5.90;4.13;;;13.60;95.30;;;;;;5036540;28;20218;-73
2021/05/30 04:39:04;;;;;;;4.43;3.53;;;13.60;95.10;;;;;;5007226;28;20220;-73
2021/05/30 04:41:29;;;;;;;4.67;3.50;;;13.60;95.20;;;;;;5035801;28;20217;-74
2021/05/30 04:43:55;;;;;;;5.20;4.07;;;13.60;95.30;;;;;;5037343;28;20895;-73
2021/05/30 04:46:21;;;;;;;6.13;4.30;;;13.60;95.70;;;;;;5049800;28;20312;-73
2021/05/30 04:48:46;;;;;;;5.50;4.27;;;13.60;95.70;;;;;;5022660;28;20213;-73
2021/05/30 04:51:13;;;;;;;4.67;3.50;;;13.60;96.00;;;;;;5024458;28;20308;-73
2021/05/30 04:53:43;;;;;;;6.80;4.60;;;13.60;95.70;;;;;;5006703;28;20230;-74
2021/05/30 04:56:10;;;;;;;5.47;4.33;;;13.60;96.00;;;;;;5032820;28;20459;-73
2021/05/30 04:58:36;;;;;;;4.47;4.07;;;13.70;96.30;;;;;;5042814;28;20466;-73
2021/05/30 05:01:07;;;;;;;5.73;3.77;;;13.70;96.30;;;;;;5041797;28;20965;-73
2021/05/30 05:03:33;;;;;;;5.13;3.50;;;13.70;96.20;;;;;;5038507;28;20460;-75
2021/05/30 05:06:00;;;;;;;4.87;3.67;;;13.70;96.10;;;;;;5036246;28;20464;-75
2021/05/30 05:08:26;;;;;;;4.60;4.00;;;13.70;96.20;;;;;;5002200;28;20563;-74
2021/05/30 05:10:52;;;;;;;4.67;3.60;;;13.80;96.40;;;;;;5015594;28;20996;-73
2021/05/30 05:13:18;;;;;;;6.30;3.70;;;13.80;96.40;;;;;;5005447;28;20316;-73
2021/05/30 05:15:49;;;;;;;4.93;3.83;;;13.80;96.30;;;;;;5000274;28;20555;-73
2021/05/30 05:18:17;;;;;;;4.43;3.70;;;13.90;96.30;;;;;;5024106;28;20888;-73
2021/05/30 05:20:43;;;;;;;5.30;4.30;;;13.90;96.40;;;;;;5049488;28;21003;-73
2021/05/30 05:23:12;;;;;;;6.90;3.47;;;13.90;96.50;;;;;;5048377;28;20456;-73
2021/05/30 05:25:38;;;;;;;4.70;3.27;;;14.00;96.60;;;;;;4997677;28;20564;-73
2021/05/30 05:28:04;;;;;;;5.70;4.20;;;14.00;96.70;;;;;;5036262;28;21193;-73
2021/05/30 05:30:31;;;;;;;5.87;3.50;;;14.00;96.60;;;;;;5003124;28;20627;-73
2021/05/30 05:32:58;;;;;;;5.83;4.10;;;14.00;96.80;;;;;;5021218;28;20535;-74
2021/05/30 05:35:25;;;;;;;5.20;3.73;;;14.10;96.70;;;;;;5013867;28;20548;-73
2021/05/30 05:37:57;;;;;;;6.00;4.13;;;14.10;97.00;;;;;;5041384;28;20450;-73
2021/05/30 05:40:24;;;;;;;8.80;4.73;;;14.10;96.90;;;;;;5037181;28;20844;-73
2021/05/30 05:42:51;;;;;;;5.00;3.80;;;14.20;96.90;;;;;;5040350;28;20438;-73
2021/05/30 05:45:17;;;;;;;5.47;4.10;;;14.20;97.00;;;;;;5036930;28;20463;-73
2021/05/30 05:47:44;;;;;;;5.20;3.77;;;14.20;97.30;;;;;;5026867;28;20491;-73
2021/05/30 05:50:15;;;;;;;6.63;3.50;;;14.30;97.20;;;;;;5030382;28;20450;-74
2021/05/30 05:52:41;;;;;;;5.63;3.80;;;14.30;97.20;;;;;;5021805;28;20467;-73
2021/05/30 05:55:08;;;;;;;4.77;3.90;;;14.40;97.30;;;;;;5059064;28;20459;-74
2021/05/30 05:57:57;;;;;;;6.27;4.20;;;14.40;97.60;;;;;;5046194;28;20220;-73
2021/05/30 06:00:23;;;;;;;5.87;3.97;;;14.50;97.50;;;;;;5036026;28;20822;-73
2021/05/30 06:02:51;;;;;;;5.97;4.53;;;14.50;97.90;;;;;;5033259;28;20456;-73
2021/05/30 06:05:18;;;;;;;4.50;3.73;;;14.60;98.00;;;;;;5035440;28;20821;-74
2021/05/30 06:07:49;;;;;;;5.90;4.50;;;14.70;98.20;;;;;;5040156;28;20956;-74
2021/05/30 06:10:16;;;;;;;5.00;4.03;;;14.80;98.60;;;;;;5040145;28;21028;-73
2021/05/30 06:12:42;;;;;;;5.80;4.30;;;14.90;98.70;;;;;;5038190;28;20450;-73
2021/05/30 06:15:09;;;;;;;4.93;4.43;;;14.90;98.70;;;;;;5019869;28;20472;-74
2021/05/30 06:17:35;;;;;;;7.53;5.10;;;15.00;98.70;;;;;;5009707;28;20444;-74
2021/05/30 06:20:02;;;;;;;5.20;4.50;;;15.10;98.80;;;;;;5053676;28;20449;-73
2021/05/30 06:22:34;;;;;;;5.60;3.90;;;15.10;98.60;;;;;;5044875;28;21008;-73
2021/05/30 06:25:00;;;;;;;5.20;4.70;;;15.20;98.80;;;;;;5006291;28;20464;-73
2021/05/30 06:27:26;;;;;;;7.27;4.50;;;15.20;98.70;;;;;;5028073;28;20449;-73
2021/05/30 06:29:52;;;;;;;4.90;4.07;;;15.30;98.80;;;;;;4996730;28;20252;-73
2021/05/30 06:32:17;;;;;;;6.07;4.10;;;15.40;99.10;;;;;;5024398;28;20229;-73
2021/05/30 06:34:43;;;;;;;5.13;3.93;;;15.40;99.00;;;;;;5051224;28;20716;-73
2021/05/30 06:37:10;;;;;;;4.57;3.83;;;15.50;99.10;;;;;;5040493;28;20303;-73
2021/05/30 06:39:36;;;;;;;5.80;3.83;;;15.60;99.20;;;;;;5043557;28;20701;-73
2021/05/30 06:42:01;;;;;;;8.67;4.07;;;15.70;99.00;;;;;;5036138;28;20539;-73
2021/05/30 06:44:27;;;;;;;4.43;3.80;;;15.70;98.80;;;;;;5026126;28;20312;-73
2021/05/30 06:46:53;;;;;;;6.20;3.90;;;15.70;98.80;;;;;;5056065;28;20264;-73
2021/05/30 06:49:18;;;;;;;7.20;5.00;;;15.80;98.90;;;;;;5009328;28;20213;-73
2021/05/30 06:51:44;;;;;;;7.90;4.53;;;15.80;98.80;;;;;;5041327;28;20276;-73
2021/05/30 06:54:10;;;;;;;5.40;4.10;;;15.90;98.90;;;;;;5014595;28;20280;-73
2021/05/30 06:56:36;;;;;;;7.10;4.27;;;16.00;98.80;;;;;;5040619;28;20585;-73
2021/05/30 06:59:02;;;;;;;5.10;4.00;;;16.00;98.70;;;;;;5034774;28;20212;-73
2021/05/30 07:01:28;;;;;;;5.50;3.70;;;16.00;98.70;;;;;;5036496;28;20838;-73
2021/05/30 07:03:54;;;;;;;7.27;4.87;;;16.10;98.70;;;;;;5022363;28;20464;-73
2021/05/30 07:06:22;;;;;;;8.03;4.60;;;16.10;98.60;;;;;;5013735;28;20829;-73
2021/05/30 07:08:49;;;;;;;7.63;3.97;;;16.10;98.80;;;;;;5035684;28;20224;-73
2021/05/30 07:11:15;;;;;;;5.87;3.97;;;16.20;98.70;;;;;;5005966;28;20540;-73
2021/05/30 07:13:41;;;;;;;7.37;5.27;;;16.30;98.70;;;;;;5053324;28;20555;-73
2021/05/30 07:16:06;;;;;;;5.13;4.07;;;16.30;98.70;;;;;;5025844;28;20565;-73
2021/05/30 07:18:32;;;;;;;4.87;4.07;;;16.40;98.80;;;;;;5004184;28;20220;-73
2021/05/30 07:20:59;;;;;;;5.87;4.50;;;16.50;98.80;;;;;;5017821;28;20268;-73
2021/05/30 07:23:25;;;;;;;6.60;4.70;;;16.50;98.60;;;;;;5002241;28;20224;-73
2021/05/30 07:25:52;;;;;;;5.93;4.00;;;16.60;98.80;;;;;;5035178;28;20548;-73
2021/05/30 07:28:18;;;;;;;6.47;4.63;;;16.60;98.50;;;;;;5020970;28;20216;-73
2021/05/30 07:30:44;;;;;;;7.47;4.43;;;16.70;98.40;;;;;;5029398;28;20471;-74
2021/05/30 07:33:10;;;;;;;6.57;4.40;;;16.80;98.30;;;;;;5025429;28;20466;-73
2021/05/30 07:35:36;;;;;;;6.33;4.47;;;16.90;98.30;;;;;;5054968;28;20216;-74
2021/05/30 07:38:02;;;;;;;5.93;4.30;;;16.90;98.30;;;;;;5063371;28;20262;-73
2021/05/30 07:40:29;;;;;;;6.87;5.30;;;16.90;98.40;;;;;;5048199;28;20447;-73
2021/05/30 07:42:55;;;;;;;7.10;4.63;;;17.00;98.30;;;;;;5046190;28;20462;-73
2021/05/30 07:45:22;;;;;;;5.73;4.90;;;16.90;98.00;;;;;;5043278;28;20451;-73
2021/05/30 07:47:49;;;;;;;5.93;4.63;;;16.90;98.10;;;;;;5040565;28;20637;-73
2021/05/30 07:50:16;;;;;;;9.30;5.07;;;16.90;98.10;;;;;;5068689;28;20999;-73
2021/05/30 07:52:42;;;;;;;4.70;4.00;;;17.00;98.40;;;;;;5026279;28;20445;-73
2021/05/30 07:55:10;;;;;;;5.97;4.67;;;17.10;98.70;;;;;;5051380;28;20498;-73
2021/05/30 07:57:36;;;;;;;6.00;5.30;;;17.20;98.30;;;;;;5078047;28;20451;-73
2021/05/30 08:00:05;;;;;;;5.90;4.20;;;17.30;98.20;;;;;;5009275;28;20486;-73
2021/05/30 08:02:38;;;;;;;4.13;3.70;;;17.40;98.30;;;;;;5024731;28;20216;-73
2021/05/30 08:05:06;;;;;;;5.70;4.43;;;17.40;98.20;;;;;;5028590;28;20454;-73
2021/05/30 08:07:32;;;;;;;5.20;4.03;;;17.50;98.00;;;;;;5035314;28;20478;-73
2021/05/30 08:09:58;;;;;;;4.47;3.60;;;17.70;98.20;;;;;;5043345;28;20459;-74
2021/05/30 08:12:24;;;;;;;4.90;4.40;;;17.80;98.20;;;;;;5045925;28;20526;-74
2021/05/30 08:14:50;;;;;;;4.77;4.20;;;17.80;97.80;;;;;;5029803;28;20232;-73
2021/05/30 08:17:17;;;;;;;5.57;4.83;;;17.80;97.80;;;;;;5046017;28;20497;-73
2021/05/30 08:19:42;;;;;;;5.53;4.30;;;17.90;97.70;;;;;;5032339;28;20208;-73
2021/05/30 08:22:08;;;;;;;7.03;4.87;;;18.00;97.80;;;;;;5079613;28;20473;-73
2021/05/30 08:24:37;;;;;;;4.63;4.00;;;18.10;97.60;;;;;;5029203;28;20228;-73
2021/05/30 08:27:03;;;;;;;5.00;3.97;;;18.20;97.80;;;;;;5026468;28;20513;-73
2021/05/30 08:29:28;;;;;;;6.53;4.90;;;18.20;97.80;;;;;;5065279;28;20978;-73
2021/05/30 08:31:55;;;;;;;6.70;6.00;;;18.30;97.80;;;;;;5068626;28;20459;-73
2021/05/30 08:34:21;;;;;;;5.30;4.00;;;18.30;97.40;;;;;;5025130;28;20221;-73
2021/05/30 08:36:47;;;;;;;6.27;4.43;;;18.30;97.50;;;;;;5058861;28;20976;-73
2021/05/30 08:39:14;;;;;;;5.73;4.07;;;18.40;97.50;;;;;;5060566;28;20216;-73
2021/05/30 08:41:41;;;;;;;4.77;4.07;;;18.40;97.50;;;;;;5029465;28;20463;-74
2021/05/30 08:44:08;;;;;;;5.93;4.27;;;18.50;97.40;;;;;;5038517;28;20451;-73
2021/05/30 08:46:34;;;;;;;4.57;4.10;;;18.60;97.10;;;;;;5040752;28;20464;-73
2021/05/30 08:49:01;;;;;;;4.77;4.37;;;18.70;96.90;;;;;;5056165;28;20462;-73
2021/05/30 08:51:27;;;;;;;4.73;4.30;;;18.60;97.10;;;;;;5041349;28;20303;-73
2021/05/30 08:53:52;;;;;;;5.00;4.50;;;18.70;97.10;;;;;;5024992;28;20552;-73
2021/05/30 08:56:21;;;;;;;4.37;3.97;;;18.80;97.10;;;;;;5053176;28;20239;-73
2021/05/30 08:58:48;;;;;;;6.10;4.23;;;18.90;97.10;;;;;;5042321;28;20236;-73
2021/05/30 09:01:21;;;;;;;4.80;4.00;;;19.00;96.70;;;;;;5061213;28;20459;-73
2021/05/30 09:04:06;;;;;;;4.70;4.30;;;19.10;97.10;;;;;;5028990;28;20537;-73
2021/05/30 09:06:33;;;;;;;4.20;3.80;;;19.20;97.10;;;;;;5025717;28;21085;-73
2021/05/30 09:08:59;;;;;;;4.30;3.90;;;19.40;97.10;;;;;;5025217;28;20587;-73
2021/05/30 09:11:44;;;;;;;4.57;4.07;;;19.40;96.60;;;;;;5059116;28;20480;-74
2021/05/30 09:14:18;;;;;;;5.40;3.50;;;19.50;96.60;;;;;;5057696;28;20466;-74
2021/05/30 09:17:02;;;;;;;3.97;3.57;;;19.60;96.70;;;;;;5061707;28;20451;-73
2021/05/30 09:19:43;;;;;;;4.50;4.10;;;19.70;96.40;;;;;;5060594;28;20459;-73
2021/05/30 09:22:25;;;;;;;4.00;3.37;;;19.80;96.40;;;;;;5029199;28;20509;-73
2021/05/30 09:24:51;;;;;;;4.60;4.20;;;19.80;96.10;;;;;;5044135;28;20466;-73
2021/05/30 09:27:17;;;;;;;4.10;3.70;;;19.70;95.60;;;;;;5028976;28;20813;-73
2021/05/30 09:29:43;;;;;;;7.43;4.37;;;19.80;95.80;;;;;;5027084;28;20231;-73
2021/05/30 09:32:10;;;;;;;4.00;3.60;;;19.90;95.90;;;;;;5028516;28;20534;-73
2021/05/30 09:34:37;;;;;;;3.67;3.20;;;20.10;95.80;;;;;;5012191;28;20474;-73
2021/05/30 09:37:05;;;;;;;3.87;3.20;;;20.10;94.30;;;;;;5012135;28;20451;-73
2021/05/30 09:39:37;;;;;;;3.37;3.00;;;20.20;94.40;;;;;;5033117;28;20455;-74
2021/05/30 09:42:33;;;;;;;3.90;3.30;;;20.20;93.90;;;;;;5065598;28;20447;-73
2021/05/30 09:45:01;;;;;;;3.47;3.17;;;20.30;93.00;;;;;;5061639;28;20486;-73
2021/05/30 09:47:41;;;;;;;2.90;2.70;;;20.10;92.30;;;;;;5059182;28;20467;-74
2021/05/30 09:50:18;;;;;;;3.57;3.27;;;20.20;92.40;;;;;;5011333;28;20893;-73
2021/05/30 09:52:47;;;;;;;3.67;3.23;;;20.40;92.70;;;;;;5068483;28;20993;-73
2021/05/30 09:55:16;;;;;;;3.53;3.17;;;20.40;92.40;;;;;;5020548;28;20870;-73
2021/05/30 09:58:01;;;;;;;3.60;3.30;;;20.60;92.80;;;;;;5026535;28;20452;-74
2021/05/30 10:00:27;;;;;;;3.43;3.10;;;20.60;92.50;;;;;;5057896;28;20468;-74
2021/05/30 10:02:54;;;;;;;4.57;4.17;;;20.60;92.30;;;;;;5043422;28;20456;-75
2021/05/30 10:05:20;;;;;;;6.37;3.23;;;20.50;92.20;;;;;;5066693;28;20227;-75
2021/05/30 10:07:47;;;;;;;3.47;3.17;;;20.70;92.50;;;;;;5045023;28;20523;-75
2021/05/30 10:10:14;;;;;;;3.73;3.43;;;20.80;92.60;;;;;;5012285;28;20217;-74
2021/05/30 10:12:41;;;;;;;3.00;2.80;;;21.00;93.00;;;;;;5045315;28;20456;-74
2021/05/30 10:15:08;;;;;;;3.13;2.83;;;21.00;92.30;;;;;;4979707;28;20543;-74
2021/05/30 10:17:35;;;;;;;4.07;3.67;;;21.20;92.60;;;;;;5044905;28;20467;-74
2021/05/30 10:20:02;;;;;;;3.70;3.20;;;21.40;93.20;;;;;;5074945;28;20507;-74
2021/05/30 10:22:29;;;;;;;3.73;3.43;;;21.40;92.70;;;;;;5067779;28;20454;-74
2021/05/30 10:24:55;;;;;;;5.13;3.30;;;21.50;92.60;;;;;;5067505;28;20462;-74
2021/05/30 10:27:28;;;;;;;3.37;2.87;;;21.30;91.00;;;;;;5065276;28;20481;-76
2021/05/30 10:30:14;;;;;;;3.80;3.50;;;21.40;91.30;;;;;;5011944;28;20472;-76
2021/05/30 10:33:07;;;;;;;3.03;2.83;;;21.40;90.40;;;;;;5036574;28;20454;-74
2021/05/30 10:35:33;;;;;;;2.90;2.47;;;21.40;89.50;;;;;;5084737;28;20469;-73
2021/05/30 10:37:58;;;;;;;4.70;3.50;;;21.40;89.70;;;;;;5067476;28;20446;-74
2021/05/30 10:40:41;;;;;;;2.80;2.60;;;21.00;87.20;;;;;;5067913;28;20639;-74
2021/05/30 10:43:10;;;;;;;3.20;2.40;;;20.80;88.00;;;;;;5100379;28;20212;-74
2021/05/30 10:45:37;;;;;;;3.60;2.60;;;20.70;86.50;;;;;;5051585;28;20448;-74
2021/05/30 10:48:02;;;;;;;3.33;3.03;;;20.60;86.90;;;;;;5046205;28;20439;-74
2021/05/30 10:50:48;;;;;;;3.40;3.10;;;20.80;88.80;;;;;;5064492;28;20521;-74
2021/05/30 10:53:36;;;;;;;3.13;2.20;;;20.90;86.70;;;;;;5012492;28;20252;-73
2021/05/30 10:56:23;;;;;;;2.60;2.37;;;21.00;87.10;;;;;;5026742;28;20444;-74
2021/05/30 10:59:04;;;;;;;3.07;2.87;;;21.30;87.90;;;;;;5071871;28;20471;-73
2021/05/30 11:01:38;;;;;;;3.10;2.80;;;21.60;87.30;;;;;;5064852;28;20947;-73
2021/05/30 11:04:25;;;;;;;3.47;2.63;;;21.70;86.40;;;;;;5044086;28;21015;-73
2021/05/30 11:06:53;;;;;;;3.40;2.90;;;21.80;85.90;;;;;;5077230;28;20459;-73
2021/05/30 11:09:20;;;;;;;4.10;3.37;;;22.10;86.60;;;;;;5045251;28;21014;-73
2021/05/30 11:11:46;;;;;;;3.20;3.00;;;22.20;87.30;;;;;;5028600;28;20542;-73
2021/05/30 11:14:13;;;;;;;3.53;3.20;;;22.20;86.50;;;;;;5079095;28;20466;-74
2021/05/30 11:16:44;;;;;;;4.20;3.40;;;22.10;86.30;;;;;;5063297;28;20463;-74
2021/05/30 11:19:14;;;;;;;4.20;3.27;;;22.20;86.30;;;;;;5045706;28;20443;-74
2021/05/30 11:21:43;;;;;;;4.07;3.47;;;22.20;86.60;;;;;;5026296;28;20463;-74
2021/05/30 11:24:20;;;;;;;3.20;2.93;;;22.30;86.60;;;;;;5058687;28;20447;-75
2021/05/30 11:27:02;;;;;;;2.87;2.67;;;22.30;86.20;;;;;;5046300;28;20487;-76
2021/05/30 11:29:29;;;;;;;3.83;3.40;;;22.50;86.10;;;;;;5039501;28;20468;-76
2021/05/30 11:31:55;;;;;;;2.83;2.63;;;22.40;85.90;;;;;;4993586;28;20907;-76
2021/05/30 11:34:28;;;;;;;3.53;3.23;;;22.40;86.60;;;;;;5018123;28;20490;-76
2021/05/30 11:37:09;;;;;;;3.50;2.70;;;22.60;87.70;;;;;;5044614;28;21005;-76
2021/05/30 11:39:40;;;;;;;3.40;2.90;;;22.70;85.90;;;;;;5042780;28;20456;-74
2021/05/30 11:42:06;;;;;;;3.67;3.37;;;22.50;84.30;;;;;;5028703;28;20471;-74
2021/05/30 11:44:32;;;;;;;3.57;3.10;;;22.40;84.40;;;;;;5026482;28;20850;-74
2021/05/30 11:47:00;;;;;;;4.00;3.60;;;22.40;84.50;;;;;;5051623;28;20530;-74
2021/05/30 11:49:34;;;;;;;3.40;3.10;;;22.50;83.20;;;;;;5027120;28;20463;-74
2021/05/30 11:52:12;;;;;;;4.13;3.23;;;22.60;83.40;;;;;;5039695;28;20467;-74
2021/05/30 11:54:49;;;;;;;3.50;3.20;;;22.60;84.40;;;;;;5049762;28;21128;-74
2021/05/30 11:57:19;;;;;;;3.70;3.40;;;22.40;83.50;;;;;;5064699;28;20468;-74
2021/05/30 11:59:53;;;;;;;3.43;3.20;;;22.40;83.30;;;;;;5049388;28;20450;-74
2021/05/30 12:02:33;;;;;;;3.97;2.90;;;22.50;83.40;;;;;;5041829;28;20448;-74
2021/05/30 12:05:07;;;;;;;5.97;4.00;;;22.40;83.60;;;;;;5023070;28;20452;-74
2021/05/30 12:07:32;;;;;;;4.70;4.30;;;22.40;83.30;;;;;;5023741;28;20824;-74
2021/05/30 12:10:00;;;;;;;3.20;3.00;;;22.50;83.10;;;;;;5014728;28;20982;-74
2021/05/30 12:12:32;;;;;;;3.50;2.97;;;22.70;83.80;;;;;;5079160;28;20273;-74
2021/05/30 12:15:08;;;;;;;5.60;3.50;;;22.70;83.30;;;;;;5071452;28;20544;-74
2021/05/30 12:17:35;;;;;;;6.63;3.50;;;22.40;83.00;;;;;;5042069;28;20522;-74
2021/05/30 12:20:00;;;;;;;5.30;4.90;;;22.40;83.40;;;;;;5064577;28;20446;-74
2021/05/30 12:22:29;;;;;;;6.67;3.00;;;22.40;83.50;;;;;;5058599;28;20471;-74
2021/05/30 12:24:56;;;;;;;3.10;2.90;;;22.30;83.50;;;;;;5032143;28;20259;-74
2021/05/30 12:27:23;;;;;;;3.00;2.77;;;22.30;83.30;;;;;;5028681;28;20455;-74
2021/05/30 12:29:52;;;;;;;2.50;2.30;;;22.00;82.80;;;;;;5045904;28;20455;-74
2021/05/30 12:32:20;;;;;;;2.80;2.60;;;22.00;82.20;;;;;;5053309;28;20471;-74
2021/05/30 12:34:47;;;;;;;3.63;3.33;;;21.90;82.30;;;;;;5016002;28;20470;-74
2021/05/30 12:37:13;;;;;;;3.37;3.07;;;21.80;82.00;;;;;;5041094;28;20451;-74
2021/05/30 12:39:39;;;;;;;3.03;2.73;;;21.70;81.60;;;;;;5041679;28;20465;-74
2021/05/30 12:42:15;;;;;;;3.83;3.00;;;21.70;81.80;;;;;;5036293;28;20684;-74
2021/05/30 12:44:44;;;;;;;6.33;2.70;;;21.70;80.60;;;;;;5046072;28;20463;-74
2021/05/30 12:47:21;;;;;;;2.63;2.43;;;21.80;80.50;;;;;;5037755;28;20461;-74
2021/05/30 12:50:05;;;;;;;3.20;2.87;;;22.00;81.40;;;;;;5082105;28;20498;-74
2021/05/30 12:52:49;;;;;;;2.80;2.60;;;22.10;81.40;;;;;;5069215;28;20479;-74
2021/05/30 12:55:17;;;;;;;3.10;2.73;;;22.00;80.90;;;;;;5045798;28;21049;-74
2021/05/30 12:57:45;;;;;;;2.83;2.63;;;21.80;80.80;;;;;;5061243;28;20466;-74